Kaumakani, Hawaii
Current Conditions -  °F | °C
As of 12:56 PM on Friday 31 Oct 2014 (Local Time) from PHBK Reporting Station
Broken Clouds Broken Clouds  
Wind Chill: 83°   Ceiling: 5500
Heat Index: 87°   Visibility: 10mi
Dew Point: 70°   Wind: 0mph
Humidity: 65%   Direction: NA
Pressure: 30.02"   Gusts: NA
Location:  21.91°N, 159.61°W
Report Text: PHBK 312256Z AUTO 00000KT 10SM BKN055 28/21 A3002 RMK AO2 RAB2159E08B28E39 SLP166 P0000 T02830211
Loading
Personal Weather Stations






























Interactive Weather Map
Tropical Storm Tracking
New forecast layout! Learn more

10-Day Weather Forecast

Advertisements
Track Severe Weather on mobile